createdAt,value
2023-02-15T00:00:12.986Z,34.60
2023-02-15T00:02:41.109Z,34.60
2023-02-15T00:05:10.211Z,34.60
2023-02-15T00:07:38.462Z,34.60
2023-02-15T00:10:07.527Z,34.60
2023-02-15T00:12:35.366Z,34.60
2023-02-15T00:15:03.305Z,34.60
2023-02-15T00:17:31.424Z,34.60
2023-02-15T00:19:59.465Z,34.60
2023-02-15T00:22:27.654Z,34.60
2023-02-15T00:24:55.379Z,34.60
2023-02-15T00:27:23.359Z,34.60
2023-02-15T00:29:51.441Z,34.60
2023-02-15T00:32:19.391Z,34.60
2023-02-15T00:34:48.337Z,34.60
2023-02-15T00:37:16.271Z,34.60
2023-02-15T00:39:48.378Z,34.60
2023-02-15T00:42:16.087Z,34.60
2023-02-15T00:44:43.829Z,34.60
2023-02-15T00:47:11.777Z,34.60
2023-02-15T00:49:39.516Z,34.60
2023-02-15T00:52:07.368Z,34.60
2023-02-15T00:54:39.801Z,34.60
2023-02-15T00:57:07.593Z,34.60
2023-02-15T00:59:35.392Z,34.70
2023-02-15T01:02:03.362Z,34.60
2023-02-15T01:04:31.369Z,34.60
2023-02-15T01:06:59.441Z,34.60
2023-02-15T01:09:27.309Z,34.60
2023-02-15T01:11:55.095Z,34.60
2023-02-15T01:14:25.852Z,34.70
2023-02-15T01:16:56.931Z,34.70
2023-02-15T01:19:24.582Z,34.70
2023-02-15T01:21:52.444Z,34.60
2023-02-15T01:24:20.478Z,34.60
2023-02-15T01:26:48.291Z,34.70
2023-02-15T01:29:16.243Z,34.60
2023-02-15T01:31:44.100Z,34.60
2023-02-15T01:34:12.152Z,34.60
2023-02-15T01:36:43.588Z,34.60
2023-02-15T01:39:11.696Z,34.70
2023-02-15T01:41:39.532Z,34.60
2023-02-15T01:44:45.822Z,34.70
2023-02-15T01:47:18.960Z,34.60
2023-02-15T01:49:48.193Z,34.70
2023-02-15T01:52:18.845Z,34.70
2023-02-15T01:54:48.331Z,34.70
2023-02-15T01:57:20.493Z,34.70
2023-02-15T01:59:53.420Z,34.70
2023-02-15T02:02:25.251Z,34.60
2023-02-15T02:05:09.573Z,34.70
2023-02-15T02:07:42.118Z,34.60
2023-02-15T02:10:12.787Z,34.60
2023-02-15T02:12:43.864Z,34.60
2023-02-15T02:15:12.437Z,34.60
2023-02-15T02:17:49.292Z,34.60
2023-02-15T02:20:42.937Z,34.50
2023-02-15T02:23:40.551Z,34.50
2023-02-15T02:26:39.118Z,34.50
2023-02-15T02:29:28.667Z,34.50
2023-02-15T02:32:55.324Z,34.50
2023-02-15T02:35:42.312Z,34.50
2023-02-15T02:38:21.010Z,34.50
2023-02-15T02:41:21.877Z,34.50
2023-02-15T02:43:57.158Z,34.50
2023-02-15T02:46:35.718Z,34.40
2023-02-15T02:49:03.759Z,34.40
2023-02-15T02:51:32.449Z,34.40
2023-02-15T02:54:04.840Z,34.40
2023-02-15T02:56:48.647Z,34.40
2023-02-15T02:59:22.289Z,34.40
2023-02-15T03:02:14.078Z,34.40
2023-02-15T03:04:59.727Z,34.30
2023-02-15T03:07:29.857Z,34.30
2023-02-15T03:10:01.745Z,34.20
2023-02-15T03:12:34.257Z,34.20
2023-02-15T03:15:18.824Z,34.10
2023-02-15T03:17:53.678Z,34.00
2023-02-15T03:20:31.922Z,34.00
2023-02-15T03:23:07.037Z,33.90
2023-02-15T03:25:48.505Z,33.90
2023-02-15T03:28:24.681Z,33.80
2023-02-15T03:30:56.933Z,33.70
2023-02-15T03:33:27.132Z,33.70
2023-02-15T03:36:05.056Z,33.60
2023-02-15T03:39:02.778Z,33.50
2023-02-15T03:41:40.390Z,33.50
2023-02-15T03:44:35.239Z,33.40
2023-02-15T03:47:09.718Z,33.40
2023-02-15T03:49:55.245Z,33.40
2023-02-15T03:52:24.433Z,33.40
2023-02-15T03:54:53.260Z,33.30
2023-02-15T03:57:43.682Z,33.30
2023-02-15T04:00:38.599Z,33.20
2023-02-15T04:03:38.107Z,33.20
2023-02-15T04:06:06.114Z,33.10
2023-02-15T04:08:52.754Z,33.10
2023-02-15T04:11:20.937Z,33.10
2023-02-15T04:13:48.529Z,33.00
2023-02-15T04:16:16.434Z,33.40
2023-02-15T04:19:03.331Z,33.60
2023-02-15T04:21:50.601Z,34.00
2023-02-15T04:24:37.544Z,34.30
2023-02-15T04:27:06.825Z,34.40
2023-02-15T04:29:34.915Z,34.50
2023-02-15T04:32:03.781Z,34.50
2023-02-15T04:34:32.301Z,35.00
2023-02-15T04:37:00.729Z,34.80
2023-02-15T04:39:29.059Z,35.00
2023-02-15T04:41:57.099Z,35.00
2023-02-15T04:44:25.110Z,35.00
2023-02-15T04:46:53.539Z,34.80
2023-02-15T04:49:21.451Z,34.90
2023-02-15T04:51:49.737Z,35.10
2023-02-15T04:54:18.464Z,35.10
2023-02-15T04:56:46.950Z,34.90
2023-02-15T04:59:15.680Z,35.20
2023-02-15T05:01:44.146Z,35.10
2023-02-15T05:04:12.983Z,34.90
2023-02-15T05:06:44.292Z,34.50
2023-02-15T05:09:13.821Z,34.90
2023-02-15T05:11:42.861Z,35.00
2023-02-15T05:14:11.629Z,34.60
2023-02-15T05:16:40.449Z,34.60
2023-02-15T05:19:08.889Z,34.40
2023-02-15T05:21:38.064Z,34.40
2023-02-15T05:24:26.433Z,34.40
2023-02-15T05:27:13.834Z,34.30
2023-02-15T05:29:42.037Z,34.30
2023-02-15T05:32:10.581Z,34.20
2023-02-15T05:34:39.152Z,34.20
2023-02-15T05:37:08.872Z,34.30
2023-02-15T05:39:37.337Z,34.30
2023-02-15T05:42:06.039Z,34.30
2023-02-15T05:44:34.396Z,34.30
2023-02-15T05:47:04.395Z,34.20
2023-02-15T05:49:32.929Z,34.10
2023-02-15T05:52:01.657Z,34.20
2023-02-15T05:54:30.448Z,34.10
2023-02-15T05:56:58.807Z,34.00
2023-02-15T05:59:27.097Z,34.10
2023-02-15T06:01:55.538Z,34.00
2023-02-15T06:04:24.022Z,34.00
2023-02-15T06:06:52.351Z,33.90
2023-02-15T06:09:21.157Z,34.10
2023-02-15T06:11:49.621Z,33.90
2023-02-15T06:14:18.194Z,27.50
2023-02-15T06:16:46.704Z,27.40
2023-02-15T06:19:15.318Z,27.70
2023-02-15T06:21:43.579Z,27.90
2023-02-15T06:24:12.133Z,28.00
2023-02-15T06:26:40.452Z,28.00
2023-02-15T06:29:09.054Z,28.00
2023-02-15T06:31:37.834Z,28.30
2023-02-15T06:34:07.197Z,29.10
2023-02-15T06:36:35.566Z,29.70
2023-02-15T06:39:04.637Z,30.50
2023-02-15T06:41:33.043Z,31.00
2023-02-15T06:44:01.416Z,30.40
2023-02-15T06:46:30.249Z,29.90
2023-02-15T06:48:58.386Z,30.30
2023-02-15T06:51:26.724Z,30.20
2023-02-15T06:53:55.042Z,30.40
2023-02-15T06:56:23.645Z,30.50
2023-02-15T06:58:51.806Z,30.80
2023-02-15T07:01:20.532Z,30.80
2023-02-15T07:03:48.967Z,30.70
2023-02-15T07:06:17.661Z,30.50
2023-02-15T07:08:46.024Z,30.90
2023-02-15T07:11:32.714Z,30.70
2023-02-15T07:14:01.216Z,31.00
2023-02-15T07:16:29.596Z,31.00
2023-02-15T07:18:57.921Z,31.00
2023-02-15T07:21:26.252Z,31.00
2023-02-15T07:24:00.643Z,31.00
2023-02-15T07:26:29.382Z,31.20
2023-02-15T07:28:57.843Z,31.70
2023-02-15T07:31:26.335Z,31.70
2023-02-15T07:33:54.741Z,32.50
2023-02-15T07:36:23.309Z,32.60
2023-02-15T07:38:51.597Z,32.30
2023-02-15T07:41:20.194Z,32.10
2023-02-15T07:43:48.397Z,32.20
2023-02-15T07:46:18.270Z,32.20
2023-02-15T07:48:47.051Z,32.60
2023-02-15T07:51:17.106Z,32.40
2023-02-15T07:53:45.708Z,33.10
2023-02-15T07:56:16.042Z,33.30
2023-02-15T07:58:53.375Z,33.50
2023-02-15T08:01:37.591Z,33.30
2023-02-15T08:04:08.244Z,33.30
2023-02-15T08:06:37.603Z,33.00
2023-02-15T08:09:08.347Z,33.90
2023-02-15T08:11:38.968Z,33.90
2023-02-15T08:14:12.174Z,34.00
2023-02-15T08:16:43.565Z,34.20
2023-02-15T08:19:31.509Z,33.70
2023-02-15T08:22:06.012Z,34.00
2023-02-15T08:24:38.287Z,34.10
2023-02-15T08:27:08.050Z,34.00
2023-02-15T08:29:38.977Z,33.60
2023-02-15T08:32:10.513Z,34.20
2023-02-15T08:34:42.361Z,34.20
2023-02-15T08:37:10.903Z,33.80
2023-02-15T08:39:39.384Z,34.40
2023-02-15T08:42:07.685Z,34.20
2023-02-15T08:44:36.148Z,34.00
2023-02-15T08:47:05.197Z,33.90
2023-02-15T08:49:33.962Z,33.90
2023-02-15T08:52:03.246Z,33.80
2023-02-15T08:54:31.495Z,33.80
2023-02-15T08:57:00.913Z,34.40
2023-02-15T08:59:29.422Z,33.90
2023-02-15T09:01:58.087Z,33.60
2023-02-15T09:04:26.596Z,33.70
2023-02-15T09:06:56.494Z,34.10
2023-02-15T09:09:24.876Z,33.90
2023-02-15T09:11:58.728Z,34.00
2023-02-15T09:14:28.798Z,34.20
2023-02-15T09:16:57.664Z,33.90
2023-02-15T09:19:26.666Z,34.00
2023-02-15T09:21:55.253Z,34.10
2023-02-15T09:24:23.856Z,34.10
2023-02-15T09:26:52.492Z,34.60
2023-02-15T09:29:21.556Z,35.00
2023-02-15T09:31:52.375Z,34.80
2023-02-15T09:34:23.314Z,34.60
2023-02-15T09:36:52.730Z,34.40
2023-02-15T09:39:26.495Z,34.50
2023-02-15T09:41:57.833Z,34.50
2023-02-15T09:44:35.892Z,35.00
2023-02-15T09:47:32.153Z,34.90
2023-02-15T09:50:10.176Z,34.80
2023-02-15T09:52:53.799Z,34.80
2023-02-15T09:55:39.930Z,34.80
2023-02-15T09:58:37.472Z,34.90
2023-02-15T10:01:43.872Z,35.20
2023-02-15T10:04:21.377Z,35.00
2023-02-15T10:07:02.967Z,35.10
2023-02-15T10:09:51.718Z,35.20
2023-02-15T10:12:56.431Z,35.00
2023-02-15T10:15:53.383Z,35.10
2023-02-15T10:18:42.699Z,35.10
2023-02-15T10:21:45.706Z,35.50
2023-02-15T10:24:53.631Z,35.90
2023-02-15T10:27:23.044Z,35.60
2023-02-15T10:30:03.019Z,35.30
2023-02-15T10:32:37.812Z,35.40
2023-02-15T10:35:25.013Z,35.50
2023-02-15T10:38:05.107Z,35.50
2023-02-15T10:40:42.534Z,35.10
2023-02-15T10:43:31.709Z,35.30
2023-02-15T10:46:19.046Z,35.00
2023-02-15T10:48:53.305Z,34.90
2023-02-15T10:51:58.183Z,34.90
2023-02-15T10:54:47.633Z,34.90
2023-02-15T10:57:38.752Z,34.80
2023-02-15T11:00:32.568Z,35.40
2023-02-15T11:03:36.694Z,35.20
2023-02-15T11:06:05.438Z,34.90
2023-02-15T11:08:43.403Z,35.20
2023-02-15T11:11:18.135Z,35.10
2023-02-15T11:13:51.702Z,35.50
2023-02-15T11:16:46.671Z,35.60
2023-02-15T11:19:23.206Z,35.50
2023-02-15T11:21:59.449Z,35.50
2023-02-15T11:24:31.049Z,35.30
2023-02-15T11:27:04.614Z,35.20
2023-02-15T11:29:58.610Z,35.40
2023-02-15T11:32:37.048Z,35.50
2023-02-15T11:35:11.612Z,35.50
2023-02-15T11:37:52.507Z,35.30
2023-02-15T11:40:41.933Z,35.40
2023-02-15T11:43:36.248Z,35.30
2023-02-15T11:46:05.218Z,35.40
2023-02-15T11:48:34.012Z,35.40
2023-02-15T11:51:04.867Z,35.50
2023-02-15T11:53:37.378Z,35.60
2023-02-15T11:56:07.469Z,35.30
2023-02-15T11:58:42.973Z,35.80
2023-02-15T12:01:39.606Z,35.70
2023-02-15T12:04:23.923Z,35.50
2023-02-15T12:07:04.415Z,35.40
2023-02-15T12:09:46.179Z,35.50
2023-02-15T12:12:26.808Z,35.30
2023-02-15T12:15:00.424Z,35.10
2023-02-15T12:17:30.105Z,35.00
2023-02-15T12:20:22.165Z,35.20
2023-02-15T12:22:51.766Z,35.10
2023-02-15T12:25:38.489Z,34.80
2023-02-15T12:28:40.724Z,34.60
2023-02-15T12:31:32.426Z,34.20
2023-02-15T12:34:04.885Z,34.10
2023-02-15T12:36:51.125Z,34.00
2023-02-15T12:39:27.447Z,34.00
2023-02-15T12:41:55.616Z,33.60
2023-02-15T12:44:28.089Z,33.70
2023-02-15T12:47:03.952Z,33.80
2023-02-15T12:49:39.706Z,33.80
2023-02-15T12:52:28.247Z,33.70
2023-02-15T12:54:56.649Z,33.60
2023-02-15T12:57:35.302Z,33.50
2023-02-15T13:00:24.337Z,33.50
2023-02-15T13:02:58.735Z,33.30
2023-02-15T13:05:41.732Z,33.30
2023-02-15T13:08:21.867Z,33.20
2023-02-15T13:10:57.862Z,33.20
2023-02-15T13:13:32.499Z,33.40
2023-02-15T13:16:05.522Z,33.40
2023-02-15T13:18:38.091Z,33.30
2023-02-15T13:21:13.689Z,33.10
2023-02-15T13:23:49.761Z,32.80
2023-02-15T13:26:22.732Z,32.70
2023-02-15T13:28:57.864Z,32.70
2023-02-15T13:31:29.987Z,32.60
2023-02-15T13:34:24.112Z,32.40
2023-02-15T13:37:22.932Z,32.50
2023-02-15T13:40:08.673Z,32.50
2023-02-15T13:42:59.700Z,32.50
2023-02-15T13:45:39.831Z,32.60
2023-02-15T13:48:34.141Z,32.80
2023-02-15T13:51:29.697Z,32.80
2023-02-15T13:54:21.700Z,32.70
2023-02-15T13:57:08.573Z,32.50
2023-02-15T14:00:11.408Z,32.60
2023-02-15T14:02:54.334Z,32.50
2023-02-15T14:05:42.014Z,32.60
2023-02-15T14:08:24.654Z,32.50
2023-02-15T14:11:15.546Z,32.50
2023-02-15T14:13:58.577Z,32.30
2023-02-15T14:17:04.337Z,32.10
2023-02-15T14:20:12.888Z,31.90
2023-02-15T14:22:46.966Z,31.90
2023-02-15T14:25:24.084Z,31.80
2023-02-15T14:28:17.206Z,31.60
2023-02-15T14:30:51.025Z,31.70
2023-02-15T14:33:41.289Z,31.80
2023-02-15T14:36:15.370Z,31.90
2023-02-15T14:39:33.562Z,32.00
2023-02-15T14:42:16.736Z,31.90
2023-02-15T14:44:55.203Z,32.00
2023-02-15T14:47:38.408Z,32.00
2023-02-15T14:50:31.382Z,32.00
2023-02-15T14:53:26.969Z,32.00
2023-02-15T14:56:08.490Z,31.80
2023-02-15T14:58:41.033Z,32.00
2023-02-15T15:01:11.281Z,32.00
2023-02-15T15:03:54.432Z,31.90
2023-02-15T15:06:32.814Z,31.70
2023-02-15T15:09:26.973Z,31.50
2023-02-15T15:12:13.930Z,31.20
2023-02-15T15:14:47.064Z,31.30
2023-02-15T15:17:39.785Z,31.10
2023-02-15T15:20:35.209Z,31.20
2023-02-15T15:23:22.330Z,31.20
2023-02-15T15:25:53.607Z,31.20
2023-02-15T15:28:37.206Z,31.20
2023-02-15T15:31:19.384Z,31.20
2023-02-15T15:34:09.285Z,31.40
2023-02-15T15:37:02.016Z,31.40
2023-02-15T15:39:30.335Z,31.30
2023-02-15T15:42:32.976Z,31.40
2023-02-15T15:45:22.328Z,31.30
2023-02-15T15:48:19.363Z,31.30
2023-02-15T15:50:49.670Z,31.10
2023-02-15T15:53:24.883Z,31.20
2023-02-15T15:56:00.578Z,31.40
2023-02-15T15:58:31.865Z,31.20
2023-02-15T16:01:09.532Z,31.10
2023-02-15T16:03:38.006Z,31.10
2023-02-15T16:06:06.806Z,31.10
2023-02-15T16:08:38.013Z,31.00
2023-02-15T16:11:32.566Z,31.00
2023-02-15T16:14:01.607Z,31.00
2023-02-15T16:16:30.961Z,30.90
2023-02-15T16:19:00.927Z,30.90
2023-02-15T16:21:33.290Z,30.90
2023-02-15T16:24:28.089Z,30.90
2023-02-15T16:27:16.725Z,30.80
2023-02-15T16:29:44.967Z,30.90
2023-02-15T16:32:26.091Z,30.90
2023-02-15T16:34:55.545Z,30.90
2023-02-15T16:37:28.577Z,30.80
2023-02-15T16:39:57.380Z,30.80
2023-02-15T16:42:26.724Z,30.90
2023-02-15T16:45:13.685Z,30.80
2023-02-15T16:47:45.450Z,30.70
2023-02-15T16:50:33.132Z,30.80
2023-02-15T16:53:02.665Z,30.70
2023-02-15T16:55:38.885Z,30.80
2023-02-15T16:58:09.530Z,30.70
2023-02-15T17:00:39.634Z,30.70
2023-02-15T17:03:23.970Z,31.30
2023-02-15T17:06:00.888Z,30.20
2023-02-15T17:08:33.367Z,29.60
2023-02-15T17:11:10.412Z,30.00
2023-02-15T17:13:39.287Z,30.50
2023-02-15T17:16:30.849Z,30.60
2023-02-15T17:19:00.566Z,30.80
2023-02-15T17:21:44.009Z,30.80
2023-02-15T17:24:22.662Z,30.80
2023-02-15T17:27:01.043Z,30.80
2023-02-15T17:29:47.158Z,30.90
2023-02-15T17:32:24.659Z,30.90
2023-02-15T17:35:09.766Z,30.90
2023-02-15T17:37:37.928Z,31.00
2023-02-15T17:40:18.328Z,31.00
2023-02-15T17:42:46.806Z,31.00
2023-02-15T17:45:16.246Z,31.00
2023-02-15T17:47:45.284Z,31.00
2023-02-15T17:50:34.435Z,31.00
2023-02-15T17:53:02.890Z,31.00
2023-02-15T17:55:39.473Z,31.00
2023-02-15T17:58:13.539Z,31.10
2023-02-15T18:01:06.086Z,31.10
2023-02-15T18:04:08.305Z,31.10
2023-02-15T18:06:59.931Z,31.20
2023-02-15T18:09:47.138Z,31.10
2023-02-15T18:12:27.052Z,31.20
2023-02-15T18:14:57.152Z,31.20
2023-02-15T18:17:38.732Z,31.30
2023-02-15T18:20:32.015Z,31.20
2023-02-15T18:23:02.376Z,31.40
2023-02-15T18:25:30.893Z,31.30
2023-02-15T18:27:59.134Z,31.40
2023-02-15T18:30:28.103Z,31.40
2023-02-15T18:32:58.647Z,31.40
2023-02-15T18:35:31.547Z,31.40
2023-02-15T18:38:02.251Z,31.50
2023-02-15T18:40:31.048Z,31.50
2023-02-15T18:42:59.453Z,31.50
2023-02-15T18:45:32.984Z,31.50
2023-02-15T18:48:01.283Z,31.50
2023-02-15T18:50:34.068Z,31.60
2023-02-15T18:53:04.008Z,31.60
2023-02-15T18:55:35.923Z,31.60
2023-02-15T18:58:04.722Z,31.60
2023-02-15T19:00:35.302Z,31.70
2023-02-15T19:03:03.948Z,31.70
2023-02-15T19:05:34.087Z,31.70
2023-02-15T19:08:03.711Z,31.70
2023-02-15T19:10:33.538Z,31.70
2023-02-15T19:13:01.848Z,31.70
2023-02-15T19:15:31.769Z,31.70
2023-02-15T19:18:00.138Z,31.80
2023-02-15T19:20:36.651Z,31.80
2023-02-15T19:23:09.051Z,31.80
2023-02-15T19:25:39.693Z,31.80
2023-02-15T19:28:28.090Z,31.80
2023-02-15T19:30:56.298Z,31.80
2023-02-15T19:33:24.651Z,31.90
2023-02-15T19:35:57.709Z,31.90
2023-02-15T19:38:33.311Z,31.90
2023-02-15T19:41:06.408Z,31.90
2023-02-15T19:43:36.015Z,32.00
2023-02-15T19:46:04.886Z,32.00
2023-02-15T19:48:33.449Z,32.00
2023-02-15T19:51:01.771Z,32.10
2023-02-15T19:53:30.330Z,32.00
2023-02-15T19:55:58.896Z,32.00
2023-02-15T19:58:27.061Z,32.00
2023-02-15T20:00:55.141Z,32.10
2023-02-15T20:03:23.172Z,32.10
2023-02-15T20:05:51.463Z,32.10
2023-02-15T20:08:23.129Z,32.10
2023-02-15T20:10:51.539Z,32.10
2023-02-15T20:13:21.293Z,32.10
2023-02-15T20:15:50.243Z,32.10
2023-02-15T20:18:21.103Z,32.20
2023-02-15T20:20:55.528Z,32.20
2023-02-15T20:23:34.334Z,32.20
2023-02-15T20:26:15.641Z,32.20
2023-02-15T20:28:44.650Z,32.20
2023-02-15T20:31:17.498Z,32.30
2023-02-15T20:33:45.689Z,32.30
2023-02-15T20:36:17.530Z,32.40
2023-02-15T20:38:46.426Z,32.30
2023-02-15T20:41:36.183Z,32.30
2023-02-15T20:44:29.615Z,32.40
2023-02-15T20:46:59.522Z,32.30
2023-02-15T20:49:28.909Z,32.40
2023-02-15T20:51:58.649Z,32.50
2023-02-15T20:54:30.492Z,32.50
2023-02-15T20:57:00.404Z,32.60
2023-02-15T20:59:32.929Z,32.50
2023-02-15T21:02:25.501Z,32.50
2023-02-15T21:04:53.856Z,32.60
2023-02-15T21:07:22.337Z,32.60
2023-02-15T21:09:50.490Z,32.60
2023-02-15T21:12:21.631Z,32.70
2023-02-15T21:14:49.772Z,32.70
2023-02-15T21:17:17.760Z,32.80
2023-02-15T21:19:46.344Z,32.70
2023-02-15T21:22:16.376Z,32.70
2023-02-15T21:24:52.515Z,32.70
2023-02-15T21:27:21.141Z,32.70
2023-02-15T21:29:49.426Z,32.80
2023-02-15T21:32:19.213Z,32.80
2023-02-15T21:34:47.621Z,32.80
2023-02-15T21:37:33.059Z,32.80
2023-02-15T21:40:02.601Z,32.80
2023-02-15T21:42:49.368Z,32.80
2023-02-15T21:45:36.433Z,32.80
2023-02-15T21:48:04.402Z,32.80
2023-02-15T21:50:50.921Z,32.80
2023-02-15T21:53:37.487Z,32.80
2023-02-15T21:56:09.290Z,32.90
2023-02-15T21:58:37.180Z,32.90
2023-02-15T22:01:08.035Z,32.90
2023-02-15T22:03:38.322Z,32.90
2023-02-15T22:06:06.384Z,32.90
2023-02-15T22:08:34.697Z,32.90
2023-02-15T22:11:02.956Z,32.90
2023-02-15T22:13:34.026Z,33.00
2023-02-15T22:16:03.128Z,33.00
2023-02-15T22:18:33.939Z,33.00
2023-02-15T22:21:02.713Z,33.00
2023-02-15T22:23:31.158Z,33.00
2023-02-15T22:26:03.143Z,33.00
2023-02-15T22:28:40.117Z,33.00
2023-02-15T22:31:13.932Z,33.00
2023-02-15T22:33:41.867Z,33.00
2023-02-15T22:36:28.341Z,33.00
2023-02-15T22:38:57.339Z,33.00
2023-02-15T22:41:28.957Z,33.00
2023-02-15T22:43:57.391Z,33.10
2023-02-15T22:46:25.984Z,33.10
2023-02-15T22:48:54.198Z,33.10
2023-02-15T22:51:24.252Z,33.10
2023-02-15T22:53:53.448Z,33.10
2023-02-15T22:56:37.844Z,33.10
2023-02-15T22:59:14.182Z,33.10
2023-02-15T23:01:42.047Z,33.20
2023-02-15T23:04:26.234Z,33.20
2023-02-15T23:06:55.340Z,33.10
2023-02-15T23:13:50.257Z,33.20
2023-02-15T23:16:18.799Z,33.20
2023-02-15T23:18:48.396Z,33.20
2023-02-15T23:21:24.960Z,33.20
2023-02-15T23:24:13.290Z,33.20
2023-02-15T23:26:41.045Z,33.20
2023-02-15T23:29:14.680Z,33.20
2023-02-15T23:31:48.537Z,33.20
2023-02-15T23:34:20.247Z,33.20
2023-02-15T23:36:48.137Z,33.20
2023-02-15T23:39:36.446Z,33.20
2023-02-15T23:42:14.658Z,33.20
2023-02-15T23:44:44.837Z,33.30
2023-02-15T23:47:45.460Z,33.20
2023-02-15T23:50:18.352Z,33.30
2023-02-15T23:52:46.334Z,33.30
2023-02-15T23:55:14.704Z,33.30
2023-02-15T23:57:43.432Z,33.30
